createdAt,value
2023-11-07T21:21:30.520Z,71.36
2023-11-07T21:24:00.962Z,71.25
2023-11-07T21:26:28.961Z,71.24
2023-11-07T21:28:59.263Z,71.27
2023-11-07T21:31:26.873Z,71.14
2023-11-07T21:33:54.868Z,71.06
2023-11-07T21:36:22.762Z,71.08
2023-11-07T21:38:50.333Z,71.12
2023-11-07T21:41:19.643Z,71.02
2023-11-07T21:43:47.331Z,70.62
2023-11-07T21:46:15.358Z,70.76
2023-11-07T21:48:44.994Z,70.84
2023-11-07T21:51:16.194Z,70.86
2023-11-07T21:53:43.886Z,70.95
2023-11-07T21:56:13.910Z,70.78
2023-11-07T21:58:43.116Z,70.90
2023-11-07T22:01:11.139Z,70.95
2023-11-07T22:03:38.807Z,70.98
2023-11-07T22:06:07.081Z,71.08
2023-11-07T22:08:34.739Z,71.07
2023-11-07T22:11:02.304Z,70.94
2023-11-07T22:13:29.864Z,70.71
2023-11-07T22:15:57.423Z,70.54
2023-11-07T22:18:25.286Z,70.53
2023-11-07T22:20:52.832Z,70.74
2023-11-07T22:23:20.283Z,70.51
2023-11-07T22:25:47.967Z,70.45
2023-11-07T22:28:15.435Z,70.38
2023-11-07T22:30:42.954Z,70.62
2023-11-07T22:33:10.609Z,70.69
2023-11-07T22:35:38.134Z,70.95
2023-11-07T22:38:05.573Z,70.89
2023-11-07T22:40:33.059Z,70.81
2023-11-07T22:43:01.367Z,70.63
2023-11-07T22:45:29.056Z,70.63
2023-11-07T22:47:56.647Z,70.44
2023-11-07T22:50:24.925Z,70.19
2023-11-07T22:52:52.365Z,70.10
2023-11-07T22:55:19.730Z,69.97
2023-11-07T22:57:48.444Z,69.91
2023-11-07T23:00:29.115Z,69.77
2023-11-07T23:02:59.908Z,69.56
2023-11-07T23:05:27.508Z,69.83
2023-11-07T23:07:55.846Z,69.31
2023-11-07T23:10:23.631Z,69.67
2023-11-07T23:12:51.132Z,69.64
2023-11-07T23:15:18.619Z,69.49
2023-11-07T23:17:46.427Z,69.35
2023-11-07T23:20:14.014Z,69.32
2023-11-07T23:22:41.641Z,69.26
2023-11-07T23:25:13.122Z,69.06
2023-11-07T23:27:40.683Z,69.21
2023-11-07T23:30:08.973Z,69.04
2023-11-07T23:32:37.294Z,69.02
2023-11-07T23:35:05.981Z,69.15
2023-11-07T23:37:34.548Z,69.23
2023-11-07T23:40:07.680Z,68.98
2023-11-07T23:42:35.069Z,69.07
2023-11-07T23:45:03.417Z,69.14
2023-11-07T23:47:31.814Z,69.03
2023-11-07T23:49:59.306Z,68.99
2023-11-07T23:52:26.758Z,69.01
2023-11-07T23:54:54.127Z,69.00
2023-11-07T23:57:21.637Z,69.04
2023-11-07T23:59:49.352Z,68.98
